sensor_id;sensor_type;location;lat;lon;timestamp;temperature;humidity
25214;DHT22;13160;51.834;4.706;2023-05-10T00:00:09;14.10;99.90
25214;DHT22;13160;51.834;4.706;2023-05-10T00:02:40;14.10;99.90
25214;DHT22;13160;51.834;4.706;2023-05-10T00:05:10;14.10;99.90
25214;DHT22;13160;51.834;4.706;2023-05-10T00:07:38;14.10;99.90
25214;DHT22;13160;51.834;4.706;2023-05-10T00:10:07;14.10;99.90
25214;DHT22;13160;51.834;4.706;2023-05-10T00:12:36;14.00;99.90
25214;DHT22;13160;51.834;4.706;2023-05-10T00:15:06;14.00;99.90
25214;DHT22;13160;51.834;4.706;2023-05-10T00:17:35;14.00;99.90
25214;DHT22;13160;51.834;4.706;2023-05-10T00:20:07;14.00;99.90
25214;DHT22;13160;51.834;4.706;2023-05-10T00:22:36;14.00;99.90
25214;DHT22;13160;51.834;4.706;2023-05-10T00:25:06;14.00;99.90
25214;DHT22;13160;51.834;4.706;2023-05-10T00:27:36;14.00;99.90
25214;DHT22;13160;51.834;4.706;2023-05-10T00:30:05;14.00;99.90
25214;DHT22;13160;51.834;4.706;2023-05-10T00:32:34;14.00;99.90
25214;DHT22;13160;51.834;4.706;2023-05-10T00:35:05;14.00;99.90
25214;DHT22;13160;51.834;4.706;2023-05-10T00:37:34;14.00;99.90
25214;DHT22;13160;51.834;4.706;2023-05-10T00:40:03;14.00;99.90
25214;DHT22;13160;51.834;4.706;2023-05-10T00:42:32;14.00;99.90
25214;DHT22;13160;51.834;4.706;2023-05-10T00:45:01;14.00;99.90
25214;DHT22;13160;51.834;4.706;2023-05-10T00:47:29;14.00;99.90
25214;DHT22;13160;51.834;4.706;2023-05-10T00:49:58;14.00;99.90
25214;DHT22;13160;51.834;4.706;2023-05-10T00:52:30;14.00;99.90
25214;DHT22;13160;51.834;4.706;2023-05-10T00:54:58;14.00;99.90
25214;DHT22;13160;51.834;4.706;2023-05-10T00:57:27;14.00;99.90
25214;DHT22;13160;51.834;4.706;2023-05-10T00:59:55;14.00;99.90
25214;DHT22;13160;51.834;4.706;2023-05-10T01:02:25;14.00;99.90
25214;DHT22;13160;51.834;4.706;2023-05-10T01:04:54;14.00;99.90
25214;DHT22;13160;51.834;4.706;2023-05-10T01:07:23;14.10;99.90
25214;DHT22;13160;51.834;4.706;2023-05-10T01:09:53;14.10;99.90
25214;DHT22;13160;51.834;4.706;2023-05-10T01:12:22;14.10;99.90
25214;DHT22;13160;51.834;4.706;2023-05-10T01:14:50;14.00;99.90
25214;DHT22;13160;51.834;4.706;2023-05-10T01:17:19;14.10;99.90
25214;DHT22;13160;51.834;4.706;2023-05-10T01:19:49;14.10;99.90
25214;DHT22;13160;51.834;4.706;2023-05-10T01:22:38;14.10;99.90
25214;DHT22;13160;51.834;4.706;2023-05-10T01:32:26;14.10;99.90
25214;DHT22;13160;51.834;4.706;2023-05-10T01:35:00;14.10;99.90
25214;DHT22;13160;51.834;4.706;2023-05-10T01:37:37;14.00;99.90
25214;DHT22;13160;51.834;4.706;2023-05-10T01:40:19;14.10;99.90
25214;DHT22;13160;51.834;4.706;2023-05-10T01:42:51;14.10;99.90
25214;DHT22;13160;51.834;4.706;2023-05-10T01:45:29;14.10;99.90
25214;DHT22;13160;51.834;4.706;2023-05-10T01:48:06;14.00;99.90
25214;DHT22;13160;51.834;4.706;2023-05-10T01:50:38;14.10;99.90
25214;DHT22;13160;51.834;4.706;2023-05-10T01:53:10;14.10;99.90
25214;DHT22;13160;51.834;4.706;2023-05-10T01:55:44;14.10;99.90
25214;DHT22;13160;51.834;4.706;2023-05-10T01:58:19;14.10;99.90
25214;DHT22;13160;51.834;4.706;2023-05-10T02:00:50;14.10;99.90
25214;DHT22;13160;51.834;4.706;2023-05-10T02:03:24;14.10;99.90
25214;DHT22;13160;51.834;4.706;2023-05-10T02:05:54;14.10;99.90
25214;DHT22;13160;51.834;4.706;2023-05-10T02:08:24;14.10;99.90
25214;DHT22;13160;51.834;4.706;2023-05-10T02:10:55;14.10;99.90
25214;DHT22;13160;51.834;4.706;2023-05-10T02:13:26;14.10;99.90
25214;DHT22;13160;51.834;4.706;2023-05-10T02:15:57;14.10;99.90
25214;DHT22;13160;51.834;4.706;2023-05-10T02:18:27;14.10;99.90
25214;DHT22;13160;51.834;4.706;2023-05-10T02:20:57;14.10;99.90
25214;DHT22;13160;51.834;4.706;2023-05-10T02:23:28;14.10;99.90
25214;DHT22;13160;51.834;4.706;2023-05-10T02:25:57;14.20;99.90
25214;DHT22;13160;51.834;4.706;2023-05-10T02:28:28;14.10;99.90
25214;DHT22;13160;51.834;4.706;2023-05-10T02:30:57;14.10;99.90
25214;DHT22;13160;51.834;4.706;2023-05-10T02:33:29;14.10;99.90
25214;DHT22;13160;51.834;4.706;2023-05-10T02:35:58;14.10;99.90
25214;DHT22;13160;51.834;4.706;2023-05-10T02:38:28;14.20;99.90
25214;DHT22;13160;51.834;4.706;2023-05-10T02:40:57;14.20;99.90
25214;DHT22;13160;51.834;4.706;2023-05-10T02:43:28;14.20;99.90
25214;DHT22;13160;51.834;4.706;2023-05-10T02:45:58;14.20;99.90
25214;DHT22;13160;51.834;4.706;2023-05-10T02:48:29;14.20;99.90
25214;DHT22;13160;51.834;4.706;2023-05-10T02:51:03;14.20;99.90
25214;DHT22;13160;51.834;4.706;2023-05-10T02:53:36;14.20;99.90
25214;DHT22;13160;51.834;4.706;2023-05-10T02:56:13;14.20;99.90
25214;DHT22;13160;51.834;4.706;2023-05-10T02:58:45;14.20;99.90
25214;DHT22;13160;51.834;4.706;2023-05-10T03:01:14;14.20;99.90
25214;DHT22;13160;51.834;4.706;2023-05-10T03:03:44;14.20;99.90
25214;DHT22;13160;51.834;4.706;2023-05-10T03:06:12;14.20;99.90
25214;DHT22;13160;51.834;4.706;2023-05-10T03:08:41;14.20;99.90
25214;DHT22;13160;51.834;4.706;2023-05-10T03:11:21;14.20;99.90
25214;DHT22;13160;51.834;4.706;2023-05-10T03:14:05;14.20;99.90
25214;DHT22;13160;51.834;4.706;2023-05-10T03:16:42;14.20;99.90
25214;DHT22;13160;51.834;4.706;2023-05-10T03:19:21;14.20;99.90
25214;DHT22;13160;51.834;4.706;2023-05-10T03:21:53;14.10;99.90
25214;DHT22;13160;51.834;4.706;2023-05-10T03:24:24;14.20;99.90
25214;DHT22;13160;51.834;4.706;2023-05-10T03:26:56;14.10;99.90
25214;DHT22;13160;51.834;4.706;2023-05-10T03:29:30;14.20;99.90
25214;DHT22;13160;51.834;4.706;2023-05-10T03:31:59;14.20;99.90
25214;DHT22;13160;51.834;4.706;2023-05-10T03:34:30;14.20;99.90
25214;DHT22;13160;51.834;4.706;2023-05-10T03:36:59;14.20;99.90
25214;DHT22;13160;51.834;4.706;2023-05-10T03:39:27;14.20;99.90
25214;DHT22;13160;51.834;4.706;2023-05-10T03:41:56;14.10;99.90
25214;DHT22;13160;51.834;4.706;2023-05-10T03:44:24;14.10;99.90
25214;DHT22;13160;51.834;4.706;2023-05-10T03:46:56;14.10;99.90
25214;DHT22;13160;51.834;4.706;2023-05-10T03:49:25;14.10;99.90
25214;DHT22;13160;51.834;4.706;2023-05-10T03:51:55;14.10;99.90
25214;DHT22;13160;51.834;4.706;2023-05-10T03:54:23;14.10;99.90
25214;DHT22;13160;51.834;4.706;2023-05-10T03:56:52;14.10;99.90
25214;DHT22;13160;51.834;4.706;2023-05-10T03:59:21;14.10;99.90
25214;DHT22;13160;51.834;4.706;2023-05-10T04:01:49;14.10;99.90
25214;DHT22;13160;51.834;4.706;2023-05-10T04:04:17;14.10;99.90
25214;DHT22;13160;51.834;4.706;2023-05-10T04:06:48;14.10;99.90
25214;DHT22;13160;51.834;4.706;2023-05-10T04:09:17;14.10;99.90
25214;DHT22;13160;51.834;4.706;2023-05-10T04:11:46;14.10;99.90
25214;DHT22;13160;51.834;4.706;2023-05-10T04:14:14;14.10;99.90
25214;DHT22;13160;51.834;4.706;2023-05-10T04:16:43;14.10;99.90
25214;DHT22;13160;51.834;4.706;2023-05-10T04:19:11;14.10;99.90
25214;DHT22;13160;51.834;4.706;2023-05-10T04:21:40;14.10;99.90
25214;DHT22;13160;51.834;4.706;2023-05-10T04:24:08;14.10;99.90
25214;DHT22;13160;51.834;4.706;2023-05-10T04:26:40;14.00;99.90
25214;DHT22;13160;51.834;4.706;2023-05-10T04:29:08;14.10;99.90
25214;DHT22;13160;51.834;4.706;2023-05-10T04:31:37;14.10;99.90
25214;DHT22;13160;51.834;4.706;2023-05-10T04:34:05;14.00;99.90
25214;DHT22;13160;51.834;4.706;2023-05-10T04:36:34;14.00;99.90
25214;DHT22;13160;51.834;4.706;2023-05-10T04:39:03;14.00;99.90
25214;DHT22;13160;51.834;4.706;2023-05-10T04:41:33;14.00;99.90
25214;DHT22;13160;51.834;4.706;2023-05-10T04:44:03;14.00;99.90
25214;DHT22;13160;51.834;4.706;2023-05-10T04:46:32;14.10;99.90
25214;DHT22;13160;51.834;4.706;2023-05-10T04:49:01;14.00;99.90
25214;DHT22;13160;51.834;4.706;2023-05-10T04:51:29;14.00;99.90
25214;DHT22;13160;51.834;4.706;2023-05-10T04:53:58;14.00;99.90
25214;DHT22;13160;51.834;4.706;2023-05-10T04:56:32;14.00;99.90
25214;DHT22;13160;51.834;4.706;2023-05-10T04:59:01;14.00;99.90
25214;DHT22;13160;51.834;4.706;2023-05-10T05:01:30;14.00;99.90
25214;DHT22;13160;51.834;4.706;2023-05-10T05:03:59;14.00;99.90
25214;DHT22;13160;51.834;4.706;2023-05-10T05:06:28;14.00;99.90
25214;DHT22;13160;51.834;4.706;2023-05-10T05:08:56;14.00;99.90
25214;DHT22;13160;51.834;4.706;2023-05-10T05:11:25;14.00;99.90
25214;DHT22;13160;51.834;4.706;2023-05-10T05:13:53;14.00;99.90
25214;DHT22;13160;51.834;4.706;2023-05-10T05:16:23;14.00;99.90
25214;DHT22;13160;51.834;4.706;2023-05-10T05:18:52;14.00;99.90
25214;DHT22;13160;51.834;4.706;2023-05-10T05:21:21;14.00;99.90
25214;DHT22;13160;51.834;4.706;2023-05-10T05:23:49;14.00;99.90
25214;DHT22;13160;51.834;4.706;2023-05-10T05:26:18;14.00;99.90
25214;DHT22;13160;51.834;4.706;2023-05-10T05:28:46;14.00;99.90
25214;DHT22;13160;51.834;4.706;2023-05-10T05:31:15;13.90;99.90
25214;DHT22;13160;51.834;4.706;2023-05-10T05:33:46;14.00;99.90
25214;DHT22;13160;51.834;4.706;2023-05-10T05:36:14;14.00;99.90
25214;DHT22;13160;51.834;4.706;2023-05-10T05:38:43;13.90;99.90
25214;DHT22;13160;51.834;4.706;2023-05-10T05:41:11;13.90;99.90
25214;DHT22;13160;51.834;4.706;2023-05-10T05:43:40;13.90;99.90
25214;DHT22;13160;51.834;4.706;2023-05-10T05:46:09;13.80;99.90
25214;DHT22;13160;51.834;4.706;2023-05-10T05:48:37;13.80;99.90
25214;DHT22;13160;51.834;4.706;2023-05-10T05:51:07;13.80;99.90
25214;DHT22;13160;51.834;4.706;2023-05-10T05:53:36;13.80;99.90
25214;DHT22;13160;51.834;4.706;2023-05-10T05:56:04;13.80;99.90
25214;DHT22;13160;51.834;4.706;2023-05-10T05:58:34;13.80;99.90
25214;DHT22;13160;51.834;4.706;2023-05-10T06:01:03;13.70;99.90
25214;DHT22;13160;51.834;4.706;2023-05-10T06:03:31;13.70;99.90
25214;DHT22;13160;51.834;4.706;2023-05-10T06:06:00;13.70;99.90
25214;DHT22;13160;51.834;4.706;2023-05-10T06:08:30;13.70;99.90
25214;DHT22;13160;51.834;4.706;2023-05-10T06:11:00;13.70;99.90
25214;DHT22;13160;51.834;4.706;2023-05-10T06:13:30;13.70;99.90
25214;DHT22;13160;51.834;4.706;2023-05-10T06:16:02;13.70;99.90
25214;DHT22;13160;51.834;4.706;2023-05-10T06:18:31;13.70;99.90
25214;DHT22;13160;51.834;4.706;2023-05-10T06:21:00;13.70;99.90
25214;DHT22;13160;51.834;4.706;2023-05-10T06:23:30;13.70;99.90
25214;DHT22;13160;51.834;4.706;2023-05-10T06:25:58;13.70;99.90
25214;DHT22;13160;51.834;4.706;2023-05-10T06:28:27;13.70;99.90
25214;DHT22;13160;51.834;4.706;2023-05-10T06:30:55;13.70;99.90
25214;DHT22;13160;51.834;4.706;2023-05-10T06:33:24;13.70;99.90
25214;DHT22;13160;51.834;4.706;2023-05-10T06:35:53;13.70;99.90
25214;DHT22;13160;51.834;4.706;2023-05-10T06:38:21;13.80;99.90
25214;DHT22;13160;51.834;4.706;2023-05-10T06:40:51;13.80;99.90
25214;DHT22;13160;51.834;4.706;2023-05-10T06:43:19;13.80;99.90
25214;DHT22;13160;51.834;4.706;2023-05-10T06:45:48;13.80;99.90
25214;DHT22;13160;51.834;4.706;2023-05-10T06:48:17;13.90;99.90
25214;DHT22;13160;51.834;4.706;2023-05-10T06:50:45;13.90;99.90
25214;DHT22;13160;51.834;4.706;2023-05-10T06:53:14;13.90;99.90
25214;DHT22;13160;51.834;4.706;2023-05-10T06:55:43;13.90;99.90
25214;DHT22;13160;51.834;4.706;2023-05-10T06:58:13;13.90;99.90
25214;DHT22;13160;51.834;4.706;2023-05-10T07:00:42;14.00;99.90
25214;DHT22;13160;51.834;4.706;2023-05-10T07:03:12;14.00;99.90
25214;DHT22;13160;51.834;4.706;2023-05-10T07:05:41;14.00;99.90
25214;DHT22;13160;51.834;4.706;2023-05-10T07:08:09;14.00;99.90
25214;DHT22;13160;51.834;4.706;2023-05-10T07:10:37;14.00;99.90
25214;DHT22;13160;51.834;4.706;2023-05-10T07:13:06;14.10;99.90
25214;DHT22;13160;51.834;4.706;2023-05-10T07:15:36;14.10;99.90
25214;DHT22;13160;51.834;4.706;2023-05-10T07:18:05;14.10;99.90
25214;DHT22;13160;51.834;4.706;2023-05-10T07:20:34;14.10;99.90
25214;DHT22;13160;51.834;4.706;2023-05-10T07:23:02;14.20;99.90
25214;DHT22;13160;51.834;4.706;2023-05-10T07:25:31;14.20;99.90
25214;DHT22;13160;51.834;4.706;2023-05-10T07:27:59;14.20;99.90
25214;DHT22;13160;51.834;4.706;2023-05-10T07:30:28;14.20;99.90
25214;DHT22;13160;51.834;4.706;2023-05-10T07:32:57;14.20;99.90
25214;DHT22;13160;51.834;4.706;2023-05-10T07:35:26;14.30;99.90
25214;DHT22;13160;51.834;4.706;2023-05-10T07:37:55;14.30;99.90
25214;DHT22;13160;51.834;4.706;2023-05-10T07:40:23;14.30;99.90
25214;DHT22;13160;51.834;4.706;2023-05-10T07:42:52;14.30;99.90
25214;DHT22;13160;51.834;4.706;2023-05-10T07:45:20;14.30;99.90
25214;DHT22;13160;51.834;4.706;2023-05-10T07:47:48;14.30;99.90
25214;DHT22;13160;51.834;4.706;2023-05-10T07:50:18;14.40;99.90
25214;DHT22;13160;51.834;4.706;2023-05-10T07:52:48;14.40;99.90
25214;DHT22;13160;51.834;4.706;2023-05-10T07:55:18;14.40;99.90
25214;DHT22;13160;51.834;4.706;2023-05-10T07:57:48;14.50;99.90
25214;DHT22;13160;51.834;4.706;2023-05-10T08:00:18;14.50;99.90
25214;DHT22;13160;51.834;4.706;2023-05-10T08:02:47;14.60;99.90
25214;DHT22;13160;51.834;4.706;2023-05-10T08:05:17;14.60;99.90
25214;DHT22;13160;51.834;4.706;2023-05-10T08:07:46;14.60;99.90
25214;DHT22;13160;51.834;4.706;2023-05-10T08:10:14;14.70;99.90
25214;DHT22;13160;51.834;4.706;2023-05-10T08:12:43;14.80;99.90
25214;DHT22;13160;51.834;4.706;2023-05-10T08:15:12;14.80;99.90
25214;DHT22;13160;51.834;4.706;2023-05-10T08:17:41;14.90;99.90
25214;DHT22;13160;51.834;4.706;2023-05-10T08:20:10;15.00;99.90
25214;DHT22;13160;51.834;4.706;2023-05-10T08:22:41;15.00;99.90
25214;DHT22;13160;51.834;4.706;2023-05-10T08:25:09;15.10;99.90
25214;DHT22;13160;51.834;4.706;2023-05-10T08:27:38;15.20;99.90
25214;DHT22;13160;51.834;4.706;2023-05-10T08:30:07;15.20;99.90
25214;DHT22;13160;51.834;4.706;2023-05-10T08:32:37;15.30;99.90
25214;DHT22;13160;51.834;4.706;2023-05-10T08:35:06;15.30;99.90
25214;DHT22;13160;51.834;4.706;2023-05-10T08:37:34;15.40;99.90
25214;DHT22;13160;51.834;4.706;2023-05-10T08:40:05;15.40;99.90
25214;DHT22;13160;51.834;4.706;2023-05-10T08:42:36;15.50;99.90
25214;DHT22;13160;51.834;4.706;2023-05-10T08:45:06;15.50;99.90
25214;DHT22;13160;51.834;4.706;2023-05-10T08:47:36;15.50;99.90
25214;DHT22;13160;51.834;4.706;2023-05-10T08:50:07;15.50;99.90
25214;DHT22;13160;51.834;4.706;2023-05-10T08:52:38;15.50;99.90
25214;DHT22;13160;51.834;4.706;2023-05-10T08:55:10;15.60;99.90
25214;DHT22;13160;51.834;4.706;2023-05-10T08:57:38;15.60;99.90
25214;DHT22;13160;51.834;4.706;2023-05-10T09:00:08;15.60;99.90
25214;DHT22;13160;51.834;4.706;2023-05-10T09:02:37;15.60;99.90
25214;DHT22;13160;51.834;4.706;2023-05-10T09:05:07;15.60;99.90
25214;DHT22;13160;51.834;4.706;2023-05-10T09:07:37;15.60;99.90
25214;DHT22;13160;51.834;4.706;2023-05-10T09:10:07;15.60;99.90
25214;DHT22;13160;51.834;4.706;2023-05-10T09:12:38;15.60;99.90
25214;DHT22;13160;51.834;4.706;2023-05-10T09:15:07;15.60;99.90
25214;DHT22;13160;51.834;4.706;2023-05-10T09:17:40;15.60;99.90
25214;DHT22;13160;51.834;4.706;2023-05-10T09:20:10;15.60;99.90
25214;DHT22;13160;51.834;4.706;2023-05-10T09:22:38;15.60;99.90
25214;DHT22;13160;51.834;4.706;2023-05-10T09:25:08;15.60;99.90
25214;DHT22;13160;51.834;4.706;2023-05-10T09:27:40;15.60;99.90
25214;DHT22;13160;51.834;4.706;2023-05-10T09:30:23;15.60;99.90
25214;DHT22;13160;51.834;4.706;2023-05-10T09:32:53;15.60;99.90
25214;DHT22;13160;51.834;4.706;2023-05-10T09:35:23;15.60;99.90
25214;DHT22;13160;51.834;4.706;2023-05-10T09:37:57;15.50;99.90
25214;DHT22;13160;51.834;4.706;2023-05-10T09:40:30;15.50;99.90
25214;DHT22;13160;51.834;4.706;2023-05-10T09:43:00;15.60;99.90
25214;DHT22;13160;51.834;4.706;2023-05-10T09:45:30;15.60;99.90
25214;DHT22;13160;51.834;4.706;2023-05-10T09:48:05;15.60;99.90
25214;DHT22;13160;51.834;4.706;2023-05-10T09:50:33;15.60;99.90
25214;DHT22;13160;51.834;4.706;2023-05-10T09:53:03;15.70;99.90
25214;DHT22;13160;51.834;4.706;2023-05-10T09:55:41;15.80;99.90
25214;DHT22;13160;51.834;4.706;2023-05-10T09:58:12;15.90;99.90
25214;DHT22;13160;51.834;4.706;2023-05-10T10:00:43;16.00;99.90
25214;DHT22;13160;51.834;4.706;2023-05-10T10:03:13;16.10;99.90
25214;DHT22;13160;51.834;4.706;2023-05-10T10:05:44;16.20;99.90
25214;DHT22;13160;51.834;4.706;2023-05-10T10:08:14;16.20;99.90
25214;DHT22;13160;51.834;4.706;2023-05-10T10:10:44;16.30;99.90
25214;DHT22;13160;51.834;4.706;2023-05-10T10:13:14;16.30;99.90
25214;DHT22;13160;51.834;4.706;2023-05-10T10:15:42;16.30;99.90
25214;DHT22;13160;51.834;4.706;2023-05-10T10:18:13;16.20;99.90
25214;DHT22;13160;51.834;4.706;2023-05-10T10:20:42;16.20;99.90
25214;DHT22;13160;51.834;4.706;2023-05-10T10:23:11;16.10;99.90
25214;DHT22;13160;51.834;4.706;2023-05-10T10:25:44;16.10;99.90
25214;DHT22;13160;51.834;4.706;2023-05-10T10:28:26;16.10;99.90
25214;DHT22;13160;51.834;4.706;2023-05-10T10:31:11;16.10;99.90
25214;DHT22;13160;51.834;4.706;2023-05-10T10:33:55;16.10;99.90
25214;DHT22;13160;51.834;4.706;2023-05-10T10:36:27;16.10;99.90
25214;DHT22;13160;51.834;4.706;2023-05-10T10:38:58;16.20;99.90
25214;DHT22;13160;51.834;4.706;2023-05-10T10:41:30;16.20;99.90
25214;DHT22;13160;51.834;4.706;2023-05-10T10:44:25;16.20;99.90
25214;DHT22;13160;51.834;4.706;2023-05-10T10:47:03;16.30;99.90
25214;DHT22;13160;51.834;4.706;2023-05-10T10:49:43;16.30;99.90
25214;DHT22;13160;51.834;4.706;2023-05-10T10:52:24;16.40;99.90
25214;DHT22;13160;51.834;4.706;2023-05-10T10:55:01;16.40;99.90
25214;DHT22;13160;51.834;4.706;2023-05-10T10:57:43;16.40;99.90
25214;DHT22;13160;51.834;4.706;2023-05-10T11:00:22;16.50;99.90
25214;DHT22;13160;51.834;4.706;2023-05-10T11:02:53;16.60;99.90
25214;DHT22;13160;51.834;4.706;2023-05-10T11:05:38;16.70;99.90
25214;DHT22;13160;51.834;4.706;2023-05-10T11:08:16;16.80;99.90
25214;DHT22;13160;51.834;4.706;2023-05-10T11:10:53;16.90;99.90
25214;DHT22;13160;51.834;4.706;2023-05-10T11:13:39;16.90;99.90
25214;DHT22;13160;51.834;4.706;2023-05-10T11:16:14;16.90;99.90
25214;DHT22;13160;51.834;4.706;2023-05-10T11:18:57;16.90;99.90
25214;DHT22;13160;51.834;4.706;2023-05-10T11:21:29;16.80;99.90
25214;DHT22;13160;51.834;4.706;2023-05-10T11:23:59;16.80;99.90
25214;DHT22;13160;51.834;4.706;2023-05-10T11:26:34;16.70;99.90
25214;DHT22;13160;51.834;4.706;2023-05-10T11:29:05;16.60;99.90
25214;DHT22;13160;51.834;4.706;2023-05-10T11:31:34;16.60;99.90
25214;DHT22;13160;51.834;4.706;2023-05-10T11:34:03;16.50;99.90
25214;DHT22;13160;51.834;4.706;2023-05-10T11:36:34;16.50;99.90
25214;DHT22;13160;51.834;4.706;2023-05-10T11:39:04;16.50;99.90
25214;DHT22;13160;51.834;4.706;2023-05-10T11:41:33;16.50;99.90
25214;DHT22;13160;51.834;4.706;2023-05-10T11:44:02;16.50;99.90
25214;DHT22;13160;51.834;4.706;2023-05-10T11:46:32;16.50;99.90
25214;DHT22;13160;51.834;4.706;2023-05-10T11:49:01;16.50;99.90
25214;DHT22;13160;51.834;4.706;2023-05-10T11:51:34;16.50;99.90
25214;DHT22;13160;51.834;4.706;2023-05-10T11:54:06;16.50;99.90
25214;DHT22;13160;51.834;4.706;2023-05-10T11:56:36;16.50;99.90
25214;DHT22;13160;51.834;4.706;2023-05-10T11:59:05;16.50;99.90
25214;DHT22;13160;51.834;4.706;2023-05-10T12:01:36;16.60;99.90
25214;DHT22;13160;51.834;4.706;2023-05-10T12:04:05;16.60;99.90
25214;DHT22;13160;51.834;4.706;2023-05-10T12:06:39;16.60;99.90
25214;DHT22;13160;51.834;4.706;2023-05-10T12:09:09;16.70;99.90
25214;DHT22;13160;51.834;4.706;2023-05-10T12:11:39;16.70;99.90
25214;DHT22;13160;51.834;4.706;2023-05-10T12:14:10;16.80;99.90
25214;DHT22;13160;51.834;4.706;2023-05-10T12:16:40;16.80;99.90
25214;DHT22;13160;51.834;4.706;2023-05-10T12:19:11;16.90;99.90
25214;DHT22;13160;51.834;4.706;2023-05-10T12:21:40;16.90;99.90
25214;DHT22;13160;51.834;4.706;2023-05-10T12:24:08;16.90;99.90
25214;DHT22;13160;51.834;4.706;2023-05-10T12:26:37;16.90;99.90
25214;DHT22;13160;51.834;4.706;2023-05-10T12:29:13;17.00;99.90
25214;DHT22;13160;51.834;4.706;2023-05-10T12:31:57;17.10;99.90
25214;DHT22;13160;51.834;4.706;2023-05-10T12:34:30;17.30;99.90
25214;DHT22;13160;51.834;4.706;2023-05-10T12:37:04;17.40;99.90
25214;DHT22;13160;51.834;4.706;2023-05-10T12:39:39;17.40;99.90
25214;DHT22;13160;51.834;4.706;2023-05-10T12:42:11;17.40;99.90
25214;DHT22;13160;51.834;4.706;2023-05-10T12:44:39;17.40;99.90
25214;DHT22;13160;51.834;4.706;2023-05-10T12:47:10;17.40;99.90
25214;DHT22;13160;51.834;4.706;2023-05-10T12:49:50;17.40;99.90
25214;DHT22;13160;51.834;4.706;2023-05-10T12:52:18;17.50;99.90
25214;DHT22;13160;51.834;4.706;2023-05-10T12:54:47;17.50;99.90
25214;DHT22;13160;51.834;4.706;2023-05-10T12:57:16;17.50;99.90
25214;DHT22;13160;51.834;4.706;2023-05-10T12:59:44;17.60;99.90
25214;DHT22;13160;51.834;4.706;2023-05-10T13:02:15;17.60;99.90
25214;DHT22;13160;51.834;4.706;2023-05-10T13:04:45;17.60;99.90
25214;DHT22;13160;51.834;4.706;2023-05-10T13:07:23;17.60;99.90
25214;DHT22;13160;51.834;4.706;2023-05-10T13:09:53;17.60;99.90
25214;DHT22;13160;51.834;4.706;2023-05-10T13:12:21;17.70;99.90
25214;DHT22;13160;51.834;4.706;2023-05-10T13:14:50;17.70;99.90
25214;DHT22;13160;51.834;4.706;2023-05-10T13:17:20;17.70;99.90
25214;DHT22;13160;51.834;4.706;2023-05-10T13:19:48;17.70;99.90
25214;DHT22;13160;51.834;4.706;2023-05-10T13:22:17;17.80;99.90
25214;DHT22;13160;51.834;4.706;2023-05-10T13:25:02;17.70;99.90
25214;DHT22;13160;51.834;4.706;2023-05-10T13:27:31;17.80;99.90
25214;DHT22;13160;51.834;4.706;2023-05-10T13:30:03;17.90;99.90
25214;DHT22;13160;51.834;4.706;2023-05-10T13:32:33;18.00;99.90
25214;DHT22;13160;51.834;4.706;2023-05-10T13:35:03;18.00;99.90
25214;DHT22;13160;51.834;4.706;2023-05-10T13:37:32;18.10;99.90
25214;DHT22;13160;51.834;4.706;2023-05-10T13:40:05;18.10;99.90
25214;DHT22;13160;51.834;4.706;2023-05-10T13:42:34;18.10;99.90
25214;DHT22;13160;51.834;4.706;2023-05-10T13:45:03;18.20;99.90
25214;DHT22;13160;51.834;4.706;2023-05-10T13:47:34;18.20;99.90
25214;DHT22;13160;51.834;4.706;2023-05-10T13:50:03;18.30;99.90
25214;DHT22;13160;51.834;4.706;2023-05-10T13:52:32;18.30;99.90
25214;DHT22;13160;51.834;4.706;2023-05-10T13:55:01;18.20;99.90
25214;DHT22;13160;51.834;4.706;2023-05-10T13:57:29;18.20;99.90
25214;DHT22;13160;51.834;4.706;2023-05-10T13:59:58;18.20;99.90
25214;DHT22;13160;51.834;4.706;2023-05-10T14:02:27;18.20;99.90
25214;DHT22;13160;51.834;4.706;2023-05-10T14:04:57;18.20;99.90
25214;DHT22;13160;51.834;4.706;2023-05-10T14:07:25;18.20;99.90
25214;DHT22;13160;51.834;4.706;2023-05-10T14:09:54;18.20;99.90
25214;DHT22;13160;51.834;4.706;2023-05-10T14:12:22;18.20;99.90
25214;DHT22;13160;51.834;4.706;2023-05-10T14:14:51;18.20;99.90
25214;DHT22;13160;51.834;4.706;2023-05-10T14:17:20;18.10;99.90
25214;DHT22;13160;51.834;4.706;2023-05-10T14:19:49;18.10;99.90
25214;DHT22;13160;51.834;4.706;2023-05-10T14:22:19;18.00;99.90
25214;DHT22;13160;51.834;4.706;2023-05-10T14:24:47;18.00;99.90
25214;DHT22;13160;51.834;4.706;2023-05-10T14:27:16;17.90;99.90
25214;DHT22;13160;51.834;4.706;2023-05-10T14:29:44;17.90;99.90
25214;DHT22;13160;51.834;4.706;2023-05-10T14:32:13;17.90;99.90
25214;DHT22;13160;51.834;4.706;2023-05-10T14:34:42;17.90;99.90
25214;DHT22;13160;51.834;4.706;2023-05-10T14:37:10;17.90;99.90
25214;DHT22;13160;51.834;4.706;2023-05-10T14:39:40;18.00;99.90
25214;DHT22;13160;51.834;4.706;2023-05-10T14:42:09;18.00;99.90
25214;DHT22;13160;51.834;4.706;2023-05-10T14:44:37;18.00;99.90
25214;DHT22;13160;51.834;4.706;2023-05-10T14:47:06;18.00;99.90
25214;DHT22;13160;51.834;4.706;2023-05-10T14:49:38;18.00;99.90
25214;DHT22;13160;51.834;4.706;2023-05-10T14:52:07;18.00;99.90
25214;DHT22;13160;51.834;4.706;2023-05-10T14:54:35;18.00;99.90
25214;DHT22;13160;51.834;4.706;2023-05-10T14:57:05;17.90;99.90
25214;DHT22;13160;51.834;4.706;2023-05-10T14:59:33;17.80;99.90
25214;DHT22;13160;51.834;4.706;2023-05-10T15:02:02;17.80;99.90
25214;DHT22;13160;51.834;4.706;2023-05-10T15:04:32;17.80;99.90
25214;DHT22;13160;51.834;4.706;2023-05-10T15:07:01;17.80;99.90
25214;DHT22;13160;51.834;4.706;2023-05-10T15:09:30;17.80;99.90
25214;DHT22;13160;51.834;4.706;2023-05-10T15:11:59;17.90;99.90
25214;DHT22;13160;51.834;4.706;2023-05-10T15:14:30;17.80;99.90
25214;DHT22;13160;51.834;4.706;2023-05-10T15:17:03;17.80;99.90
25214;DHT22;13160;51.834;4.706;2023-05-10T15:19:31;17.80;99.90
25214;DHT22;13160;51.834;4.706;2023-05-10T15:22:00;17.70;99.90
25214;DHT22;13160;51.834;4.706;2023-05-10T15:24:29;17.70;99.90
25214;DHT22;13160;51.834;4.706;2023-05-10T15:26:57;17.60;99.90
25214;DHT22;13160;51.834;4.706;2023-05-10T15:29:25;17.60;99.90
25214;DHT22;13160;51.834;4.706;2023-05-10T15:31:55;17.70;99.90
25214;DHT22;13160;51.834;4.706;2023-05-10T15:34:24;17.60;99.90
25214;DHT22;13160;51.834;4.706;2023-05-10T15:36:52;17.50;99.90
25214;DHT22;13160;51.834;4.706;2023-05-10T15:39:20;17.50;99.90
25214;DHT22;13160;51.834;4.706;2023-05-10T15:41:49;17.50;99.90
25214;DHT22;13160;51.834;4.706;2023-05-10T15:44:17;17.40;99.90
25214;DHT22;13160;51.834;4.706;2023-05-10T15:46:46;17.40;99.90
25214;DHT22;13160;51.834;4.706;2023-05-10T15:49:16;17.40;99.90
25214;DHT22;13160;51.834;4.706;2023-05-10T15:51:45;17.40;99.90
25214;DHT22;13160;51.834;4.706;2023-05-10T15:54:13;17.40;99.90
25214;DHT22;13160;51.834;4.706;2023-05-10T15:56:41;17.40;99.90